sensor_id;sensor_type;location;lat;lon;timestamp;P1;durP1;ratioP1;P2;durP2;ratioP2
11121;SDS011;5615;49.304;10.576;2022-09-12T00:01:34;62.80;;;29.50;;
11121;SDS011;5615;49.304;10.576;2022-09-12T00:04:00;104.63;;;30.70;;
11121;SDS011;5615;49.304;10.576;2022-09-12T00:06:28;49.77;;;25.63;;
11121;SDS011;5615;49.304;10.576;2022-09-12T00:08:58;124.10;;;32.87;;
11121;SDS011;5615;49.304;10.576;2022-09-12T00:11:26;79.73;;;30.63;;
11121;SDS011;5615;49.304;10.576;2022-09-12T00:13:54;147.47;;;33.13;;
11121;SDS011;5615;49.304;10.576;2022-09-12T00:16:22;138.67;;;29.43;;
11121;SDS011;5615;49.304;10.576;2022-09-12T00:18:50;127.83;;;31.40;;
11121;SDS011;5615;49.304;10.576;2022-09-12T00:21:18;58.50;;;29.13;;
11121;SDS011;5615;49.304;10.576;2022-09-12T00:23:45;56.43;;;30.33;;
11121;SDS011;5615;49.304;10.576;2022-09-12T00:26:14;72.13;;;33.60;;
11121;SDS011;5615;49.304;10.576;2022-09-12T00:28:42;60.40;;;30.60;;
11121;SDS011;5615;49.304;10.576;2022-09-12T00:31:10;52.33;;;28.77;;
11121;SDS011;5615;49.304;10.576;2022-09-12T00:33:37;54.87;;;29.03;;
11121;SDS011;5615;49.304;10.576;2022-09-12T00:36:06;55.33;;;29.60;;
11121;SDS011;5615;49.304;10.576;2022-09-12T00:38:34;61.53;;;30.37;;
11121;SDS011;5615;49.304;10.576;2022-09-12T00:41:02;67.47;;;30.67;;
11121;SDS011;5615;49.304;10.576;2022-09-12T00:43:35;79.67;;;32.30;;
11121;SDS011;5615;49.304;10.576;2022-09-12T00:46:05;66.80;;;31.77;;
11121;SDS011;5615;49.304;10.576;2022-09-12T00:48:40;65.30;;;31.07;;
11121;SDS011;5615;49.304;10.576;2022-09-12T00:51:10;72.80;;;33.20;;
11121;SDS011;5615;49.304;10.576;2022-09-12T00:53:38;66.03;;;32.10;;
11121;SDS011;5615;49.304;10.576;2022-09-12T00:56:07;79.07;;;33.10;;
11121;SDS011;5615;49.304;10.576;2022-09-12T00:58:36;64.03;;;29.97;;
11121;SDS011;5615;49.304;10.576;2022-09-12T01:01:07;60.23;;;30.07;;
11121;SDS011;5615;49.304;10.576;2022-09-12T01:03:34;67.17;;;31.20;;
11121;SDS011;5615;49.304;10.576;2022-09-12T01:06:04;67.23;;;30.37;;
11121;SDS011;5615;49.304;10.576;2022-09-12T01:08:35;48.97;;;27.47;;
11121;SDS011;5615;49.304;10.576;2022-09-12T01:11:04;54.93;;;28.40;;
11121;SDS011;5615;49.304;10.576;2022-09-12T01:13:33;56.47;;;28.30;;
11121;SDS011;5615;49.304;10.576;2022-09-12T01:16:02;51.87;;;28.30;;
11121;SDS011;5615;49.304;10.576;2022-09-12T01:18:31;67.67;;;32.07;;
11121;SDS011;5615;49.304;10.576;2022-09-12T01:21:12;55.33;;;29.37;;
11121;SDS011;5615;49.304;10.576;2022-09-12T01:23:55;52.73;;;28.30;;
11121;SDS011;5615;49.304;10.576;2022-09-12T01:26:45;60.63;;;28.37;;
11121;SDS011;5615;49.304;10.576;2022-09-12T01:29:58;64.77;;;27.83;;
11121;SDS011;5615;49.304;10.576;2022-09-12T01:32:37;65.60;;;29.00;;
11121;SDS011;5615;49.304;10.576;2022-09-12T01:35:15;60.97;;;28.13;;
11121;SDS011;5615;49.304;10.576;2022-09-12T01:37:50;53.17;;;27.97;;
11121;SDS011;5615;49.304;10.576;2022-09-12T01:40:26;57.23;;;27.50;;
11121;SDS011;5615;49.304;10.576;2022-09-12T01:43:01;57.87;;;26.83;;
11121;SDS011;5615;49.304;10.576;2022-09-12T01:45:37;55.33;;;27.50;;
11121;SDS011;5615;49.304;10.576;2022-09-12T01:48:09;53.17;;;26.13;;
11121;SDS011;5615;49.304;10.576;2022-09-12T01:50:41;47.47;;;24.77;;
11121;SDS011;5615;49.304;10.576;2022-09-12T01:53:12;53.10;;;25.70;;
11121;SDS011;5615;49.304;10.576;2022-09-12T01:55:44;54.77;;;27.60;;
11121;SDS011;5615;49.304;10.576;2022-09-12T01:58:16;42.20;;;24.37;;
11121;SDS011;5615;49.304;10.576;2022-09-12T02:00:48;41.73;;;24.33;;
11121;SDS011;5615;49.304;10.576;2022-09-12T02:03:22;45.63;;;26.10;;
11121;SDS011;5615;49.304;10.576;2022-09-12T02:05:54;42.03;;;24.20;;
11121;SDS011;5615;49.304;10.576;2022-09-12T02:08:26;60.77;;;27.13;;
11121;SDS011;5615;49.304;10.576;2022-09-12T02:10:57;83.17;;;27.23;;
11121;SDS011;5615;49.304;10.576;2022-09-12T02:13:28;79.63;;;31.50;;
11121;SDS011;5615;49.304;10.576;2022-09-12T02:16:02;70.57;;;28.80;;
11121;SDS011;5615;49.304;10.576;2022-09-12T02:18:34;59.83;;;27.07;;
11121;SDS011;5615;49.304;10.576;2022-09-12T02:21:04;45.63;;;24.80;;
11121;SDS011;5615;49.304;10.576;2022-09-12T02:23:32;46.03;;;23.80;;
11121;SDS011;5615;49.304;10.576;2022-09-12T02:26:02;58.27;;;28.23;;
11121;SDS011;5615;49.304;10.576;2022-09-12T02:28:33;47.27;;;26.40;;
11121;SDS011;5615;49.304;10.576;2022-09-12T02:31:05;59.43;;;30.00;;
11121;SDS011;5615;49.304;10.576;2022-09-12T02:33:43;56.60;;;28.43;;
11121;SDS011;5615;49.304;10.576;2022-09-12T02:36:15;50.43;;;27.23;;
11121;SDS011;5615;49.304;10.576;2022-09-12T02:38:53;50.97;;;27.43;;
11121;SDS011;5615;49.304;10.576;2022-09-12T02:41:20;55.87;;;28.43;;
11121;SDS011;5615;49.304;10.576;2022-09-12T02:43:48;60.63;;;30.73;;
11121;SDS011;5615;49.304;10.576;2022-09-12T02:46:17;55.03;;;30.50;;
11121;SDS011;5615;49.304;10.576;2022-09-12T02:48:48;60.27;;;30.97;;
11121;SDS011;5615;49.304;10.576;2022-09-12T02:51:15;61.07;;;29.43;;
11121;SDS011;5615;49.304;10.576;2022-09-12T02:53:42;60.50;;;30.00;;
11121;SDS011;5615;49.304;10.576;2022-09-12T02:56:10;61.57;;;29.73;;
11121;SDS011;5615;49.304;10.576;2022-09-12T02:58:41;65.17;;;30.93;;
11121;SDS011;5615;49.304;10.576;2022-09-12T03:01:10;64.17;;;29.70;;
11121;SDS011;5615;49.304;10.576;2022-09-12T03:03:52;56.57;;;27.63;;
11121;SDS011;5615;49.304;10.576;2022-09-12T03:06:29;52.43;;;26.77;;
11121;SDS011;5615;49.304;10.576;2022-09-12T03:09:03;50.60;;;24.50;;
11121;SDS011;5615;49.304;10.576;2022-09-12T03:11:41;52.67;;;25.53;;
11121;SDS011;5615;49.304;10.576;2022-09-12T03:14:28;52.03;;;25.40;;
11121;SDS011;5615;49.304;10.576;2022-09-12T03:17:12;45.43;;;25.50;;
11121;SDS011;5615;49.304;10.576;2022-09-12T03:19:51;62.50;;;28.77;;
11121;SDS011;5615;49.304;10.576;2022-09-12T03:22:25;69.97;;;31.87;;
11121;SDS011;5615;49.304;10.576;2022-09-12T03:24:58;56.30;;;28.87;;
11121;SDS011;5615;49.304;10.576;2022-09-12T03:27:32;68.37;;;30.23;;
11121;SDS011;5615;49.304;10.576;2022-09-12T03:30:02;64.07;;;30.83;;
11121;SDS011;5615;49.304;10.576;2022-09-12T03:32:39;63.37;;;31.10;;
11121;SDS011;5615;49.304;10.576;2022-09-12T03:35:12;59.07;;;29.63;;
11121;SDS011;5615;49.304;10.576;2022-09-12T03:37:40;57.40;;;29.73;;
11121;SDS011;5615;49.304;10.576;2022-09-12T03:40:08;62.60;;;30.33;;
11121;SDS011;5615;49.304;10.576;2022-09-12T03:42:36;65.27;;;31.33;;
11121;SDS011;5615;49.304;10.576;2022-09-12T03:45:03;52.70;;;28.20;;
11121;SDS011;5615;49.304;10.576;2022-09-12T03:47:31;45.60;;;25.87;;
11121;SDS011;5615;49.304;10.576;2022-09-12T03:49:57;46.37;;;25.90;;
11121;SDS011;5615;49.304;10.576;2022-09-12T03:52:25;55.30;;;28.93;;
11121;SDS011;5615;49.304;10.576;2022-09-12T03:54:52;69.10;;;31.17;;
11121;SDS011;5615;49.304;10.576;2022-09-12T03:57:18;60.23;;;29.13;;
11121;SDS011;5615;49.304;10.576;2022-09-12T03:59:47;68.07;;;31.23;;
11121;SDS011;5615;49.304;10.576;2022-09-12T04:02:13;63.10;;;28.80;;
11121;SDS011;5615;49.304;10.576;2022-09-12T04:04:40;70.27;;;28.93;;
11121;SDS011;5615;49.304;10.576;2022-09-12T04:07:07;49.77;;;25.93;;
11121;SDS011;5615;49.304;10.576;2022-09-12T04:09:35;92.70;;;27.37;;
11121;SDS011;5615;49.304;10.576;2022-09-12T04:12:02;75.70;;;25.83;;
11121;SDS011;5615;49.304;10.576;2022-09-12T04:14:29;88.00;;;25.73;;
11121;SDS011;5615;49.304;10.576;2022-09-12T04:16:56;70.40;;;25.80;;
11121;SDS011;5615;49.304;10.576;2022-09-12T04:19:24;49.13;;;22.53;;
11121;SDS011;5615;49.304;10.576;2022-09-12T04:21:50;69.43;;;23.80;;
11121;SDS011;5615;49.304;10.576;2022-09-12T04:24:17;100.57;;;27.33;;
11121;SDS011;5615;49.304;10.576;2022-09-12T04:26:45;94.20;;;23.87;;
11121;SDS011;5615;49.304;10.576;2022-09-12T04:29:12;52.33;;;22.83;;
11121;SDS011;5615;49.304;10.576;2022-09-12T04:31:39;39.83;;;22.43;;
11121;SDS011;5615;49.304;10.576;2022-09-12T04:34:06;50.03;;;22.47;;
11121;SDS011;5615;49.304;10.576;2022-09-12T04:36:33;39.90;;;22.27;;
11121;SDS011;5615;49.304;10.576;2022-09-12T04:39:01;59.53;;;23.37;;
11121;SDS011;5615;49.304;10.576;2022-09-12T04:41:29;48.30;;;22.07;;
11121;SDS011;5615;49.304;10.576;2022-09-12T04:43:59;48.60;;;21.97;;
11121;SDS011;5615;49.304;10.576;2022-09-12T04:46:28;59.77;;;23.40;;
11121;SDS011;5615;49.304;10.576;2022-09-12T04:48:55;51.53;;;22.03;;
11121;SDS011;5615;49.304;10.576;2022-09-12T04:51:23;59.70;;;24.57;;
11121;SDS011;5615;49.304;10.576;2022-09-12T04:53:53;42.67;;;21.70;;
11121;SDS011;5615;49.304;10.576;2022-09-12T04:56:21;63.50;;;26.67;;
11121;SDS011;5615;49.304;10.576;2022-09-12T04:58:49;59.97;;;25.13;;
11121;SDS011;5615;49.304;10.576;2022-09-12T05:01:18;104.80;;;26.50;;
11121;SDS011;5615;49.304;10.576;2022-09-12T05:03:46;73.50;;;25.63;;
11121;SDS011;5615;49.304;10.576;2022-09-12T05:06:14;78.20;;;25.17;;
11121;SDS011;5615;49.304;10.576;2022-09-12T05:08:42;79.23;;;25.57;;
11121;SDS011;5615;49.304;10.576;2022-09-12T05:11:10;48.80;;;22.23;;
11121;SDS011;5615;49.304;10.576;2022-09-12T05:13:38;138.30;;;29.67;;
11121;SDS011;5615;49.304;10.576;2022-09-12T05:16:05;80.57;;;26.27;;
11121;SDS011;5615;49.304;10.576;2022-09-12T05:18:34;51.43;;;24.27;;
11121;SDS011;5615;49.304;10.576;2022-09-12T05:21:02;70.00;;;25.90;;
11121;SDS011;5615;49.304;10.576;2022-09-12T05:23:30;46.43;;;23.87;;
11121;SDS011;5615;49.304;10.576;2022-09-12T05:25:58;40.67;;;23.40;;
11121;SDS011;5615;49.304;10.576;2022-09-12T05:28:28;33.80;;;21.63;;
11121;SDS011;5615;49.304;10.576;2022-09-12T05:30:59;37.83;;;22.23;;
11121;SDS011;5615;49.304;10.576;2022-09-12T05:33:26;32.30;;;21.47;;
11121;SDS011;5615;49.304;10.576;2022-09-12T05:35:55;33.37;;;22.00;;
11121;SDS011;5615;49.304;10.576;2022-09-12T05:38:22;37.37;;;20.83;;
11121;SDS011;5615;49.304;10.576;2022-09-12T05:40:49;32.73;;;20.37;;
11121;SDS011;5615;49.304;10.576;2022-09-12T05:43:16;35.40;;;20.60;;
11121;SDS011;5615;49.304;10.576;2022-09-12T05:45:44;36.77;;;21.97;;
11121;SDS011;5615;49.304;10.576;2022-09-12T05:48:11;34.40;;;20.87;;
11121;SDS011;5615;49.304;10.576;2022-09-12T05:50:37;35.27;;;20.77;;
11121;SDS011;5615;49.304;10.576;2022-09-12T05:53:05;31.57;;;21.13;;
11121;SDS011;5615;49.304;10.576;2022-09-12T05:55:32;28.77;;;20.47;;
11121;SDS011;5615;49.304;10.576;2022-09-12T05:57:59;29.67;;;20.53;;
11121;SDS011;5615;49.304;10.576;2022-09-12T06:00:25;29.83;;;21.10;;
11121;SDS011;5615;49.304;10.576;2022-09-12T06:02:52;31.97;;;21.50;;
11121;SDS011;5615;49.304;10.576;2022-09-12T06:05:19;29.03;;;20.37;;
11121;SDS011;5615;49.304;10.576;2022-09-12T06:07:45;28.83;;;20.07;;
11121;SDS011;5615;49.304;10.576;2022-09-12T06:10:13;27.33;;;19.63;;
11121;SDS011;5615;49.304;10.576;2022-09-12T06:12:41;28.50;;;20.67;;
11121;SDS011;5615;49.304;10.576;2022-09-12T06:15:08;30.60;;;20.73;;
11121;SDS011;5615;49.304;10.576;2022-09-12T06:17:35;30.67;;;21.00;;
11121;SDS011;5615;49.304;10.576;2022-09-12T06:20:02;26.23;;;19.50;;
11121;SDS011;5615;49.304;10.576;2022-09-12T06:22:29;22.77;;;18.83;;
11121;SDS011;5615;49.304;10.576;2022-09-12T06:24:56;26.03;;;18.80;;
11121;SDS011;5615;49.304;10.576;2022-09-12T06:27:24;23.37;;;18.20;;
11121;SDS011;5615;49.304;10.576;2022-09-12T06:29:50;26.60;;;19.37;;
11121;SDS011;5615;49.304;10.576;2022-09-12T06:32:17;26.53;;;19.67;;
11121;SDS011;5615;49.304;10.576;2022-09-12T06:34:43;26.50;;;20.83;;
11121;SDS011;5615;49.304;10.576;2022-09-12T06:37:12;26.63;;;19.97;;
11121;SDS011;5615;49.304;10.576;2022-09-12T06:39:39;30.77;;;21.57;;
11121;SDS011;5615;49.304;10.576;2022-09-12T06:42:06;29.90;;;22.10;;
11121;SDS011;5615;49.304;10.576;2022-09-12T06:44:34;31.40;;;20.57;;
11121;SDS011;5615;49.304;10.576;2022-09-12T06:47:01;30.33;;;20.93;;
11121;SDS011;5615;49.304;10.576;2022-09-12T06:49:27;28.10;;;21.30;;
11121;SDS011;5615;49.304;10.576;2022-09-12T06:51:54;29.80;;;21.93;;
11121;SDS011;5615;49.304;10.576;2022-09-12T06:54:21;31.13;;;20.90;;
11121;SDS011;5615;49.304;10.576;2022-09-12T06:56:50;24.77;;;20.50;;
11121;SDS011;5615;49.304;10.576;2022-09-12T06:59:17;27.97;;;20.00;;
11121;SDS011;5615;49.304;10.576;2022-09-12T07:01:45;26.30;;;20.83;;
11121;SDS011;5615;49.304;10.576;2022-09-12T07:04:11;29.67;;;22.33;;
11121;SDS011;5615;49.304;10.576;2022-09-12T07:06:38;39.73;;;26.23;;
11121;SDS011;5615;49.304;10.576;2022-09-12T07:09:09;39.43;;;27.03;;
11121;SDS011;5615;49.304;10.576;2022-09-12T07:11:38;41.10;;;27.53;;
11121;SDS011;5615;49.304;10.576;2022-09-12T07:14:06;44.80;;;28.83;;
11121;SDS011;5615;49.304;10.576;2022-09-12T07:16:35;38.70;;;26.37;;
11121;SDS011;5615;49.304;10.576;2022-09-12T07:19:04;38.63;;;27.17;;
11121;SDS011;5615;49.304;10.576;2022-09-12T07:21:31;34.13;;;26.70;;
11121;SDS011;5615;49.304;10.576;2022-09-12T07:24:00;32.27;;;24.53;;
11121;SDS011;5615;49.304;10.576;2022-09-12T07:26:27;35.83;;;24.30;;
11121;SDS011;5615;49.304;10.576;2022-09-12T07:28:55;35.23;;;26.00;;
11121;SDS011;5615;49.304;10.576;2022-09-12T07:31:23;38.30;;;28.33;;
11121;SDS011;5615;49.304;10.576;2022-09-12T07:33:52;40.37;;;29.13;;
11121;SDS011;5615;49.304;10.576;2022-09-12T07:36:21;36.47;;;27.53;;
11121;SDS011;5615;49.304;10.576;2022-09-12T07:38:52;34.50;;;26.57;;
11121;SDS011;5615;49.304;10.576;2022-09-12T07:41:20;32.97;;;25.83;;
11121;SDS011;5615;49.304;10.576;2022-09-12T07:43:50;33.57;;;25.37;;
11121;SDS011;5615;49.304;10.576;2022-09-12T07:46:17;29.23;;;23.77;;
11121;SDS011;5615;49.304;10.576;2022-09-12T07:48:43;29.00;;;24.50;;
11121;SDS011;5615;49.304;10.576;2022-09-12T07:51:14;27.63;;;23.53;;
11121;SDS011;5615;49.304;10.576;2022-09-12T07:53:42;25.10;;;21.33;;
11121;SDS011;5615;49.304;10.576;2022-09-12T07:56:09;23.23;;;19.67;;
11121;SDS011;5615;49.304;10.576;2022-09-12T07:58:38;21.73;;;18.27;;
11121;SDS011;5615;49.304;10.576;2022-09-12T08:01:06;20.00;;;17.43;;
11121;SDS011;5615;49.304;10.576;2022-09-12T08:03:34;20.10;;;17.27;;
11121;SDS011;5615;49.304;10.576;2022-09-12T08:06:02;20.17;;;18.07;;
11121;SDS011;5615;49.304;10.576;2022-09-12T08:08:29;17.92;;;16.13;;
11121;SDS011;5615;49.304;10.576;2022-09-12T08:10:57;17.88;;;16.08;;
11121;SDS011;5615;49.304;10.576;2022-09-12T08:13:24;15.80;;;14.20;;
11121;SDS011;5615;49.304;10.576;2022-09-12T08:15:55;15.85;;;14.30;;
11121;SDS011;5615;49.304;10.576;2022-09-12T08:18:23;15.23;;;13.82;;
11121;SDS011;5615;49.304;10.576;2022-09-12T08:20:54;14.50;;;13.07;;
11121;SDS011;5615;49.304;10.576;2022-09-12T08:23:22;15.00;;;13.50;;
11121;SDS011;5615;49.304;10.576;2022-09-12T08:25:49;15.05;;;13.52;;
11121;SDS011;5615;49.304;10.576;2022-09-12T08:28:17;14.40;;;13.00;;
11121;SDS011;5615;49.304;10.576;2022-09-12T08:30:43;14.68;;;13.27;;
11121;SDS011;5615;49.304;10.576;2022-09-12T08:33:10;14.48;;;12.82;;
11121;SDS011;5615;49.304;10.576;2022-09-12T08:35:36;14.60;;;13.23;;
11121;SDS011;5615;49.304;10.576;2022-09-12T08:38:03;13.88;;;12.15;;
11121;SDS011;5615;49.304;10.576;2022-09-12T08:40:30;13.90;;;12.60;;
11121;SDS011;5615;49.304;10.576;2022-09-12T08:43:00;14.38;;;12.98;;
11121;SDS011;5615;49.304;10.576;2022-09-12T08:45:33;13.15;;;11.85;;
11121;SDS011;5615;49.304;10.576;2022-09-12T08:48:07;12.50;;;11.40;;
11121;SDS011;5615;49.304;10.576;2022-09-12T08:50:35;12.48;;;11.30;;
11121;SDS011;5615;49.304;10.576;2022-09-12T08:53:03;11.45;;;10.30;;
11121;SDS011;5615;49.304;10.576;2022-09-12T08:55:39;10.75;;;9.75;;
11121;SDS011;5615;49.304;10.576;2022-09-12T08:58:10;9.05;;;8.30;;
11121;SDS011;5615;49.304;10.576;2022-09-12T09:00:44;10.05;;;9.15;;
11121;SDS011;5615;49.304;10.576;2022-09-12T09:06:10;9.20;;;8.40;;
11121;SDS011;5615;49.304;10.576;2022-09-12T09:09:02;10.27;;;9.23;;
11121;SDS011;5615;49.304;10.576;2022-09-12T09:11:36;10.05;;;9.05;;
11121;SDS011;5615;49.304;10.576;2022-09-12T09:14:25;9.18;;;8.38;;
11121;SDS011;5615;49.304;10.576;2022-09-12T09:17:19;9.57;;;8.77;;
11121;SDS011;5615;49.304;10.576;2022-09-12T09:19:52;9.32;;;8.50;;
11121;SDS011;5615;49.304;10.576;2022-09-12T09:22:28;9.88;;;8.98;;
11121;SDS011;5615;49.304;10.576;2022-09-12T09:25:03;9.57;;;8.60;;
11121;SDS011;5615;49.304;10.576;2022-09-12T09:27:34;9.13;;;8.20;;
11121;SDS011;5615;49.304;10.576;2022-09-12T09:30:07;9.82;;;8.32;;
11121;SDS011;5615;49.304;10.576;2022-09-12T09:32:41;8.45;;;7.65;;
11121;SDS011;5615;49.304;10.576;2022-09-12T09:35:17;7.45;;;6.85;;
11121;SDS011;5615;49.304;10.576;2022-09-12T09:37:52;7.75;;;7.05;;
11121;SDS011;5615;49.304;10.576;2022-09-12T09:40:26;7.38;;;6.75;;
11121;SDS011;5615;49.304;10.576;2022-09-12T09:43:01;7.18;;;6.57;;
11121;SDS011;5615;49.304;10.576;2022-09-12T09:45:33;7.40;;;6.80;;
11121;SDS011;5615;49.304;10.576;2022-09-12T09:48:02;7.72;;;6.95;;
11121;SDS011;5615;49.304;10.576;2022-09-12T09:50:42;7.03;;;6.38;;
11121;SDS011;5615;49.304;10.576;2022-09-12T09:53:14;7.72;;;7.07;;
11121;SDS011;5615;49.304;10.576;2022-09-12T09:55:49;7.53;;;6.93;;
11121;SDS011;5615;49.304;10.576;2022-09-12T09:58:26;7.20;;;6.60;;
11121;SDS011;5615;49.304;10.576;2022-09-12T10:00:56;7.00;;;6.40;;
11121;SDS011;5615;49.304;10.576;2022-09-12T10:03:27;6.57;;;5.95;;
11121;SDS011;5615;49.304;10.576;2022-09-12T10:06:00;5.53;;;5.05;;
11121;SDS011;5615;49.304;10.576;2022-09-12T10:08:31;5.80;;;5.30;;
11121;SDS011;5615;49.304;10.576;2022-09-12T10:11:00;5.72;;;5.22;;
11121;SDS011;5615;49.304;10.576;2022-09-12T10:13:33;4.80;;;4.40;;
11121;SDS011;5615;49.304;10.576;2022-09-12T10:16:03;6.60;;;6.10;;
11121;SDS011;5615;49.304;10.576;2022-09-12T10:18:33;6.30;;;5.72;;
11121;SDS011;5615;49.304;10.576;2022-09-12T10:21:12;5.70;;;5.13;;
11121;SDS011;5615;49.304;10.576;2022-09-12T10:23:46;6.30;;;5.70;;
11121;SDS011;5615;49.304;10.576;2022-09-12T10:26:16;5.88;;;5.38;;
11121;SDS011;5615;49.304;10.576;2022-09-12T10:28:46;7.13;;;5.85;;
11121;SDS011;5615;49.304;10.576;2022-09-12T10:31:22;5.90;;;5.35;;
11121;SDS011;5615;49.304;10.576;2022-09-12T10:33:54;6.70;;;6.20;;
11121;SDS011;5615;49.304;10.576;2022-09-12T10:36:24;6.93;;;6.32;;
11121;SDS011;5615;49.304;10.576;2022-09-12T10:39:00;5.85;;;5.30;;
11121;SDS011;5615;49.304;10.576;2022-09-12T10:41:33;6.35;;;5.78;;
11121;SDS011;5615;49.304;10.576;2022-09-12T10:44:04;5.13;;;4.72;;
11121;SDS011;5615;49.304;10.576;2022-09-12T10:46:33;5.85;;;5.45;;
11121;SDS011;5615;49.304;10.576;2022-09-12T10:51:55;5.40;;;4.90;;
11121;SDS011;5615;49.304;10.576;2022-09-12T10:54:24;5.13;;;4.72;;
11121;SDS011;5615;49.304;10.576;2022-09-12T10:57:00;6.63;;;5.82;;
11121;SDS011;5615;49.304;10.576;2022-09-12T10:59:49;6.55;;;5.47;;
11121;SDS011;5615;49.304;10.576;2022-09-12T11:02:26;6.20;;;5.60;;
11121;SDS011;5615;49.304;10.576;2022-09-12T11:04:59;5.63;;;5.18;;
11121;SDS011;5615;49.304;10.576;2022-09-12T11:07:36;4.45;;;4.13;;
11121;SDS011;5615;49.304;10.576;2022-09-12T11:10:20;5.03;;;4.63;;
11121;SDS011;5615;49.304;10.576;2022-09-12T11:13:00;5.10;;;4.70;;
11121;SDS011;5615;49.304;10.576;2022-09-12T11:15:42;5.40;;;5.00;;
11121;SDS011;5615;49.304;10.576;2022-09-12T11:18:21;4.68;;;4.28;;
11121;SDS011;5615;49.304;10.576;2022-09-12T11:21:05;5.10;;;4.57;;
11121;SDS011;5615;49.304;10.576;2022-09-12T11:23:48;5.07;;;4.55;;
11121;SDS011;5615;49.304;10.576;2022-09-12T11:26:31;4.53;;;4.13;;
11121;SDS011;5615;49.304;10.576;2022-09-12T11:29:10;5.25;;;4.75;;
11121;SDS011;5615;49.304;10.576;2022-09-12T11:34:41;5.28;;;4.88;;
11121;SDS011;5615;49.304;10.576;2022-09-12T11:37:26;5.03;;;4.63;;
11121;SDS011;5615;49.304;10.576;2022-09-12T11:40:04;5.28;;;3.85;;
11121;SDS011;5615;49.304;10.576;2022-09-12T11:42:40;5.32;;;4.68;;
11121;SDS011;5615;49.304;10.576;2022-09-12T11:45:11;4.55;;;4.15;;
11121;SDS011;5615;49.304;10.576;2022-09-12T11:47:41;4.22;;;3.78;;
11121;SDS011;5615;49.304;10.576;2022-09-12T11:50:14;4.13;;;3.72;;
11121;SDS011;5615;49.304;10.576;2022-09-12T11:52:48;3.83;;;3.53;;
11121;SDS011;5615;49.304;10.576;2022-09-12T11:55:18;3.83;;;3.53;;
11121;SDS011;5615;49.304;10.576;2022-09-12T11:57:51;4.28;;;3.88;;
11121;SDS011;5615;49.304;10.576;2022-09-12T12:00:20;4.18;;;3.78;;
11121;SDS011;5615;49.304;10.576;2022-09-12T12:02:49;4.65;;;3.75;;
11121;SDS011;5615;49.304;10.576;2022-09-12T12:05:23;4.10;;;3.70;;
11121;SDS011;5615;49.304;10.576;2022-09-12T12:07:56;4.38;;;3.90;;
11121;SDS011;5615;49.304;10.576;2022-09-12T12:10:25;4.10;;;3.80;;
11121;SDS011;5615;49.304;10.576;2022-09-12T12:12:57;3.60;;;3.40;;
11121;SDS011;5615;49.304;10.576;2022-09-12T12:15:25;4.10;;;3.70;;
11121;SDS011;5615;49.304;10.576;2022-09-12T12:18:04;3.97;;;3.67;;
11121;SDS011;5615;49.304;10.576;2022-09-12T12:20:32;3.70;;;3.40;;
11121;SDS011;5615;49.304;10.576;2022-09-12T12:23:01;3.80;;;3.50;;
11121;SDS011;5615;49.304;10.576;2022-09-12T12:25:39;4.10;;;3.80;;
11121;SDS011;5615;49.304;10.576;2022-09-12T12:28:27;3.47;;;3.17;;
11121;SDS011;5615;49.304;10.576;2022-09-12T12:31:24;3.75;;;3.45;;
11121;SDS011;5615;49.304;10.576;2022-09-12T12:33:51;3.30;;;3.05;;
11121;SDS011;5615;49.304;10.576;2022-09-12T12:36:40;4.50;;;3.88;;
11121;SDS011;5615;49.304;10.576;2022-09-12T12:48:34;6.53;;;3.28;;
11121;SDS011;5615;49.304;10.576;2022-09-12T12:54:28;2.95;;;2.75;;
11121;SDS011;5615;49.304;10.576;2022-09-12T12:57:22;3.13;;;2.92;;
11121;SDS011;5615;49.304;10.576;2022-09-12T12:59:58;3.30;;;3.10;;
11121;SDS011;5615;49.304;10.576;2022-09-12T13:02:29;4.38;;;3.00;;
11121;SDS011;5615;49.304;10.576;2022-09-12T13:05:00;3.30;;;3.10;;
11121;SDS011;5615;49.304;10.576;2022-09-12T13:07:31;3.85;;;3.58;;
11121;SDS011;5615;49.304;10.576;2022-09-12T13:10:01;3.67;;;3.38;;
11121;SDS011;5615;49.304;10.576;2022-09-12T13:12:29;4.00;;;3.70;;
11121;SDS011;5615;49.304;10.576;2022-09-12T13:14:59;4.25;;;3.67;;
11121;SDS011;5615;49.304;10.576;2022-09-12T13:17:30;3.72;;;3.25;;
11121;SDS011;5615;49.304;10.576;2022-09-12T13:20:13;3.33;;;3.03;;
11121;SDS011;5615;49.304;10.576;2022-09-12T13:22:46;3.40;;;3.10;;
11121;SDS011;5615;49.304;10.576;2022-09-12T13:25:17;3.45;;;3.15;;
11121;SDS011;5615;49.304;10.576;2022-09-12T13:27:55;2.90;;;2.70;;
11121;SDS011;5615;49.304;10.576;2022-09-12T13:30:22;3.60;;;2.72;;
11121;SDS011;5615;49.304;10.576;2022-09-12T13:32:49;3.70;;;3.25;;
11121;SDS011;5615;49.304;10.576;2022-09-12T13:35:19;3.40;;;3.10;;
11121;SDS011;5615;49.304;10.576;2022-09-12T13:37:50;3.40;;;3.10;;
11121;SDS011;5615;49.304;10.576;2022-09-12T13:40:28;3.45;;;3.05;;
11121;SDS011;5615;49.304;10.576;2022-09-12T13:43:06;3.40;;;3.10;;
11121;SDS011;5615;49.304;10.576;2022-09-12T13:45:37;3.92;;;3.63;;
11121;SDS011;5615;49.304;10.576;2022-09-12T13:48:04;3.30;;;3.00;;
11121;SDS011;5615;49.304;10.576;2022-09-12T13:50:38;3.13;;;2.92;;
11121;SDS011;5615;49.304;10.576;2022-09-12T13:53:11;4.60;;;3.00;;
11121;SDS011;5615;49.304;10.576;2022-09-12T13:55:39;3.60;;;3.30;;
11121;SDS011;5615;49.304;10.576;2022-09-12T13:58:14;3.33;;;3.10;;
11121;SDS011;5615;49.304;10.576;2022-09-12T14:00:44;4.43;;;3.38;;
11121;SDS011;5615;49.304;10.576;2022-09-12T14:03:23;3.53;;;3.22;;
11121;SDS011;5615;49.304;10.576;2022-09-12T14:06:10;3.60;;;3.10;;
11121;SDS011;5615;49.304;10.576;2022-09-12T14:08:38;3.22;;;3.03;;
11121;SDS011;5615;49.304;10.576;2022-09-12T14:11:07;3.10;;;2.85;;
11121;SDS011;5615;49.304;10.576;2022-09-12T14:13:35;3.42;;;3.13;;
11121;SDS011;5615;49.304;10.576;2022-09-12T14:16:03;3.03;;;2.83;;
11121;SDS011;5615;49.304;10.576;2022-09-12T14:18:34;3.05;;;2.80;;
11121;SDS011;5615;49.304;10.576;2022-09-12T14:21:06;3.10;;;2.90;;
11121;SDS011;5615;49.304;10.576;2022-09-12T14:23:38;4.03;;;2.72;;
11121;SDS011;5615;49.304;10.576;2022-09-12T14:26:08;4.97;;;2.53;;
11121;SDS011;5615;49.304;10.576;2022-09-12T14:28:38;2.80;;;2.60;;
11121;SDS011;5615;49.304;10.576;2022-09-12T14:31:08;3.03;;;2.60;;
11121;SDS011;5615;49.304;10.576;2022-09-12T14:33:48;3.13;;;2.45;;
11121;SDS011;5615;49.304;10.576;2022-09-12T14:36:17;3.00;;;2.80;;
11121;SDS011;5615;49.304;10.576;2022-09-12T14:38:49;2.60;;;2.40;;
11121;SDS011;5615;49.304;10.576;2022-09-12T14:41:22;2.72;;;2.53;;
11121;SDS011;5615;49.304;10.576;2022-09-12T14:43:52;2.70;;;2.50;;
11121;SDS011;5615;49.304;10.576;2022-09-12T14:46:22;2.95;;;2.75;;
11121;SDS011;5615;49.304;10.576;2022-09-12T14:48:52;2.78;;;2.58;;
11121;SDS011;5615;49.304;10.576;2022-09-12T14:51:24;3.13;;;2.92;;
11121;SDS011;5615;49.304;10.576;2022-09-12T14:53:53;2.78;;;2.55;;
11121;SDS011;5615;49.304;10.576;2022-09-12T14:56:20;3.00;;;2.80;;
11121;SDS011;5615;49.304;10.576;2022-09-12T14:58:48;2.92;;;2.50;;
11121;SDS011;5615;49.304;10.576;2022-09-12T15:01:22;3.08;;;2.80;;
11121;SDS011;5615;49.304;10.576;2022-09-12T15:03:51;3.20;;;2.90;;
11121;SDS011;5615;49.304;10.576;2022-09-12T15:06:20;2.97;;;2.75;;
11121;SDS011;5615;49.304;10.576;2022-09-12T15:08:50;3.00;;;2.70;;
11121;SDS011;5615;49.304;10.576;2022-09-12T15:11:21;5.07;;;2.75;;
11121;SDS011;5615;49.304;10.576;2022-09-12T15:13:48;2.80;;;2.60;;
11121;SDS011;5615;49.304;10.576;2022-09-12T15:16:15;2.67;;;2.47;;